sensor_id;sensor_type;location;lat;lon;timestamp;P1;durP1;ratioP1;P2;durP2;ratioP2
68375;SDS011;55318;52.068;5.188;2023-02-18T00:02:37;20.3;;;9.81;;
68375;SDS011;55318;52.068;5.188;2023-02-18T00:04:14;21.4;;;8.71;;
68375;SDS011;55318;52.068;5.188;2023-02-18T00:05:50;22.4;;;9.31;;
68375;SDS011;55318;52.068;5.188;2023-02-18T00:09:09;22.9;;;9.9;;
68375;SDS011;55318;52.068;5.188;2023-02-18T00:10:46;23.1;;;10.8;;
68375;SDS011;55318;52.068;5.188;2023-02-18T00:12:23;22.2;;;9.9;;
68375;SDS011;55318;52.068;5.188;2023-02-18T00:14:00;24.5;;;11.4;;
68375;SDS011;55318;52.068;5.188;2023-02-18T00:17:15;27.7;;;9.81;;
68375;SDS011;55318;52.068;5.188;2023-02-18T00:18:53;23.3;;;10.5;;
68375;SDS011;55318;52.068;5.188;2023-02-18T00:20:32;31.0;;;10.8;;
68375;SDS011;55318;52.068;5.188;2023-02-18T00:23:45;25.5;;;11.0;;
68375;SDS011;55318;52.068;5.188;2023-02-18T00:25:22;22.8;;;10.4;;
68375;SDS011;55318;52.068;5.188;2023-02-18T00:26:58;31.9;;;12.4;;
68375;SDS011;55318;52.068;5.188;2023-02-18T00:30:11;25.5;;;10.6;;
68375;SDS011;55318;52.068;5.188;2023-02-18T00:31:48;25.7;;;12.0;;
68375;SDS011;55318;52.068;5.188;2023-02-18T00:33:24;22.6;;;10.6;;
68375;SDS011;55318;52.068;5.188;2023-02-18T00:35:02;29.6;;;10.3;;
68375;SDS011;55318;52.068;5.188;2023-02-18T00:38:16;26.6;;;11.4;;
68375;SDS011;55318;52.068;5.188;2023-02-18T00:39:52;26.2;;;10.3;;
68375;SDS011;55318;52.068;5.188;2023-02-18T00:41:29;22.1;;;9.21;;
68375;SDS011;55318;52.068;5.188;2023-02-18T00:44:43;23.4;;;9.71;;
68375;SDS011;55318;52.068;5.188;2023-02-18T00:46:20;24.5;;;9.5;;
68375;SDS011;55318;52.068;5.188;2023-02-18T00:47:56;23.1;;;9.5;;
68375;SDS011;55318;52.068;5.188;2023-02-18T00:49:33;19.91;;;8.5;;
68375;SDS011;55318;52.068;5.188;2023-02-18T00:52:47;17.3;;;8.31;;
68375;SDS011;55318;52.068;5.188;2023-02-18T00:54:23;20.3;;;8.81;;
68375;SDS011;55318;52.068;5.188;2023-02-18T00:55:59;18.11;;;8.2;;
68375;SDS011;55318;52.068;5.188;2023-02-18T00:59:12;19.2;;;8.71;;
68375;SDS011;55318;52.068;5.188;2023-02-18T01:00:49;17.0;;;8.5;;
68375;SDS011;55318;52.068;5.188;2023-02-18T01:02:26;17.3;;;7.8;;
68375;SDS011;55318;52.068;5.188;2023-02-18T01:05:40;17.41;;;8.1;;
68375;SDS011;55318;52.068;5.188;2023-02-18T01:07:17;19.7;;;8.1;;
68375;SDS011;55318;52.068;5.188;2023-02-18T01:08:54;18.3;;;8.5;;
68375;SDS011;55318;52.068;5.188;2023-02-18T01:10:31;17.2;;;7.7;;
68375;SDS011;55318;52.068;5.188;2023-02-18T01:13:45;14.5;;;6.7;;
68375;SDS011;55318;52.068;5.188;2023-02-18T01:15:22;14.0;;;6.5;;
68375;SDS011;55318;52.068;5.188;2023-02-18T01:16:59;13.7;;;7.3;;
68375;SDS011;55318;52.068;5.188;2023-02-18T01:20:12;11.4;;;6.1;;
68375;SDS011;55318;52.068;5.188;2023-02-18T01:21:50;11.3;;;7.2;;
68375;SDS011;55318;52.068;5.188;2023-02-18T01:23:26;11.8;;;5.8;;
68375;SDS011;55318;52.068;5.188;2023-02-18T01:26:40;13.5;;;7.0;;
68375;SDS011;55318;52.068;5.188;2023-02-18T01:28:17;13.2;;;6.8;;
68375;SDS011;55318;52.068;5.188;2023-02-18T01:29:54;13.8;;;6.6;;
68375;SDS011;55318;52.068;5.188;2023-02-18T01:31:30;13.5;;;7.3;;
68375;SDS011;55318;52.068;5.188;2023-02-18T01:34:43;16.2;;;7.6;;
68375;SDS011;55318;52.068;5.188;2023-02-18T01:36:19;16.61;;;7.2;;
68375;SDS011;55318;52.068;5.188;2023-02-18T01:37:56;12.9;;;8.0;;
68375;SDS011;55318;52.068;5.188;2023-02-18T01:41:09;13.4;;;7.5;;
68375;SDS011;55318;52.068;5.188;2023-02-18T01:42:46;17.5;;;7.3;;
68375;SDS011;55318;52.068;5.188;2023-02-18T01:44:24;14.6;;;7.3;;
68375;SDS011;55318;52.068;5.188;2023-02-18T01:46:04;17.11;;;7.6;;
68375;SDS011;55318;52.068;5.188;2023-02-18T01:49:27;19.7;;;7.5;;
68375;SDS011;55318;52.068;5.188;2023-02-18T01:51:09;12.7;;;7.2;;
68375;SDS011;55318;52.068;5.188;2023-02-18T01:52:48;14.9;;;7.3;;
68375;SDS011;55318;52.068;5.188;2023-02-18T01:54:26;17.91;;;8.4;;
68375;SDS011;55318;52.068;5.188;2023-02-18T01:57:49;18.91;;;8.1;;
68375;SDS011;55318;52.068;5.188;2023-02-18T01:59:27;18.5;;;8.4;;
68375;SDS011;55318;52.068;5.188;2023-02-18T02:01:07;21.1;;;9.6;;
68375;SDS011;55318;52.068;5.188;2023-02-18T02:02:44;19.91;;;8.81;;
68375;SDS011;55318;52.068;5.188;2023-02-18T02:05:59;21.9;;;9.5;;
68375;SDS011;55318;52.068;5.188;2023-02-18T02:07:36;20.41;;;8.9;;
68375;SDS011;55318;52.068;5.188;2023-02-18T02:09:16;21.5;;;9.6;;
68375;SDS011;55318;52.068;5.188;2023-02-18T02:12:55;20.9;;;9.9;;
68375;SDS011;55318;52.068;5.188;2023-02-18T02:14:45;16.8;;;8.6;;
68375;SDS011;55318;52.068;5.188;2023-02-18T02:17:01;16.0;;;8.5;;
68375;SDS011;55318;52.068;5.188;2023-02-18T02:18:46;22.9;;;9.1;;
68375;SDS011;55318;52.068;5.188;2023-02-18T02:20:46;26.9;;;10.4;;
68375;SDS011;55318;52.068;5.188;2023-02-18T02:24:38;24.8;;;10.5;;
68375;SDS011;55318;52.068;5.188;2023-02-18T02:27:20;17.7;;;9.4;;
68375;SDS011;55318;52.068;5.188;2023-02-18T02:29:04;23.0;;;9.21;;
68375;SDS011;55318;52.068;5.188;2023-02-18T02:31:16;18.41;;;8.81;;
68375;SDS011;55318;52.068;5.188;2023-02-18T02:35:24;24.0;;;9.31;;
68375;SDS011;55318;52.068;5.188;2023-02-18T02:37:08;22.6;;;8.71;;
68375;SDS011;55318;52.068;5.188;2023-02-18T02:38:53;18.11;;;9.31;;
68375;SDS011;55318;52.068;5.188;2023-02-18T02:40:35;20.8;;;9.81;;
68375;SDS011;55318;52.068;5.188;2023-02-18T02:44:10;19.8;;;10.1;;
68375;SDS011;55318;52.068;5.188;2023-02-18T02:45:54;21.0;;;9.4;;
68375;SDS011;55318;52.068;5.188;2023-02-18T02:47:40;24.3;;;9.9;;
68375;SDS011;55318;52.068;5.188;2023-02-18T02:49:31;18.3;;;8.5;;
68375;SDS011;55318;52.068;5.188;2023-02-18T02:51:15;21.1;;;8.4;;
68375;SDS011;55318;52.068;5.188;2023-02-18T02:52:59;25.6;;;9.6;;
68375;SDS011;55318;52.068;5.188;2023-02-18T02:56:18;25.2;;;10.21;;
68375;SDS011;55318;52.068;5.188;2023-02-18T02:57:57;17.2;;;8.4;;
68375;SDS011;55318;52.068;5.188;2023-02-18T02:59:33;20.8;;;9.1;;
68375;SDS011;55318;52.068;5.188;2023-02-18T03:03:25;19.2;;;9.0;;
68375;SDS011;55318;52.068;5.188;2023-02-18T03:05:18;17.8;;;8.9;;
68375;SDS011;55318;52.068;5.188;2023-02-18T03:07:17;21.2;;;9.4;;
68375;SDS011;55318;52.068;5.188;2023-02-18T03:09:09;18.41;;;8.0;;
68375;SDS011;55318;52.068;5.188;2023-02-18T03:10:58;20.7;;;8.71;;
68375;SDS011;55318;52.068;5.188;2023-02-18T03:12:39;16.5;;;7.8;;
68375;SDS011;55318;52.068;5.188;2023-02-18T03:14:26;20.0;;;9.21;;
68375;SDS011;55318;52.068;5.188;2023-02-18T03:19:38;19.61;;;8.4;;
68375;SDS011;55318;52.068;5.188;2023-02-18T03:21:22;14.5;;;8.2;;
68375;SDS011;55318;52.068;5.188;2023-02-18T03:23:06;23.1;;;9.5;;
68375;SDS011;55318;52.068;5.188;2023-02-18T03:24:53;13.3;;;7.3;;
68375;SDS011;55318;52.068;5.188;2023-02-18T03:26:32;15.7;;;7.3;;
68375;SDS011;55318;52.068;5.188;2023-02-18T03:29:55;11.3;;;6.7;;
68375;SDS011;55318;52.068;5.188;2023-02-18T03:31:37;15.5;;;6.2;;
68375;SDS011;55318;52.068;5.188;2023-02-18T03:33:19;14.9;;;6.5;;
68375;SDS011;55318;52.068;5.188;2023-02-18T03:35:13;11.8;;;5.4;;
68375;SDS011;55318;52.068;5.188;2023-02-18T03:38:31;8.1;;;4.61;;
68375;SDS011;55318;52.068;5.188;2023-02-18T03:40:12;8.81;;;4.5;;
68375;SDS011;55318;52.068;5.188;2023-02-18T03:41:50;7.6;;;3.9;;
68375;SDS011;55318;52.068;5.188;2023-02-18T03:43:27;10.3;;;4.41;;
68375;SDS011;55318;52.068;5.188;2023-02-18T03:46:42;8.31;;;4.1;;
68375;SDS011;55318;52.068;5.188;2023-02-18T03:48:20;6.9;;;3.0;;
68375;SDS011;55318;52.068;5.188;2023-02-18T03:49:56;6.9;;;3.3;;
68375;SDS011;55318;52.068;5.188;2023-02-18T03:51:32;5.7;;;3.2;;
68375;SDS011;55318;52.068;5.188;2023-02-18T03:54:44;6.0;;;3.7;;
68375;SDS011;55318;52.068;5.188;2023-02-18T03:56:21;5.8;;;3.1;;
68375;SDS011;55318;52.068;5.188;2023-02-18T03:57:57;5.2;;;2.4;;
68375;SDS011;55318;52.068;5.188;2023-02-18T04:01:10;5.2;;;2.4;;
68375;SDS011;55318;52.068;5.188;2023-02-18T04:02:46;3.8;;;2.6;;
68375;SDS011;55318;52.068;5.188;2023-02-18T04:04:22;6.5;;;3.2;;
68375;SDS011;55318;52.068;5.188;2023-02-18T04:07:34;5.0;;;2.8;;
68375;SDS011;55318;52.068;5.188;2023-02-18T04:09:11;6.2;;;2.8;;
68375;SDS011;55318;52.068;5.188;2023-02-18T04:10:48;5.3;;;2.8;;
68375;SDS011;55318;52.068;5.188;2023-02-18T04:14:02;5.11;;;2.9;;
68375;SDS011;55318;52.068;5.188;2023-02-18T04:15:39;6.0;;;3.0;;
68375;SDS011;55318;52.068;5.188;2023-02-18T04:17:15;3.6;;;2.7;;
68375;SDS011;55318;52.068;5.188;2023-02-18T04:18:51;5.0;;;2.4;;
68375;SDS011;55318;52.068;5.188;2023-02-18T04:22:04;6.5;;;3.5;;
68375;SDS011;55318;52.068;5.188;2023-02-18T04:23:40;2.8;;;2.5;;
68375;SDS011;55318;52.068;5.188;2023-02-18T04:25:17;5.3;;;2.8;;
68375;SDS011;55318;52.068;5.188;2023-02-18T04:28:30;4.41;;;3.1;;
68375;SDS011;55318;52.068;5.188;2023-02-18T04:30:06;6.0;;;2.8;;
68375;SDS011;55318;52.068;5.188;2023-02-18T04:31:43;5.7;;;3.0;;
68375;SDS011;55318;52.068;5.188;2023-02-18T04:34:55;5.5;;;3.3;;
68375;SDS011;55318;52.068;5.188;2023-02-18T04:36:31;6.0;;;2.4;;
68375;SDS011;55318;52.068;5.188;2023-02-18T04:38:08;5.11;;;2.8;;
68375;SDS011;55318;52.068;5.188;2023-02-18T04:39:45;4.61;;;2.5;;
68375;SDS011;55318;52.068;5.188;2023-02-18T04:42:58;5.3;;;2.6;;
68375;SDS011;55318;52.068;5.188;2023-02-18T04:44:35;4.41;;;2.4;;
68375;SDS011;55318;52.068;5.188;2023-02-18T04:46:12;5.0;;;2.9;;
68375;SDS011;55318;52.068;5.188;2023-02-18T04:49:24;3.8;;;2.1;;
68375;SDS011;55318;52.068;5.188;2023-02-18T04:51:01;5.2;;;3.0;;
68375;SDS011;55318;52.068;5.188;2023-02-18T04:52:37;5.4;;;2.7;;
68375;SDS011;55318;52.068;5.188;2023-02-18T04:55:51;4.91;;;2.7;;
68375;SDS011;55318;52.068;5.188;2023-02-18T04:57:29;5.11;;;2.6;;
68375;SDS011;55318;52.068;5.188;2023-02-18T04:59:05;5.11;;;2.6;;
68375;SDS011;55318;52.068;5.188;2023-02-18T05:00:41;4.8;;;2.5;;
68375;SDS011;55318;52.068;5.188;2023-02-18T05:03:53;5.5;;;2.9;;
68375;SDS011;55318;52.068;5.188;2023-02-18T05:05:29;3.3;;;2.5;;
68375;SDS011;55318;52.068;5.188;2023-02-18T05:07:06;6.1;;;2.5;;
68375;SDS011;55318;52.068;5.188;2023-02-18T05:10:18;6.9;;;2.5;;
68375;SDS011;55318;52.068;5.188;2023-02-18T05:11:54;2.9;;;2.1;;
68375;SDS011;55318;52.068;5.188;2023-02-18T05:13:30;4.0;;;2.21;;
68375;SDS011;55318;52.068;5.188;2023-02-18T05:16:44;3.9;;;2.6;;
68375;SDS011;55318;52.068;5.188;2023-02-18T05:18:20;3.6;;;2.31;;
68375;SDS011;55318;52.068;5.188;2023-02-18T05:19:57;4.7;;;2.5;;
68375;SDS011;55318;52.068;5.188;2023-02-18T05:21:33;3.6;;;2.0;;
68375;SDS011;55318;52.068;5.188;2023-02-18T05:24:45;3.9;;;2.4;;
68375;SDS011;55318;52.068;5.188;2023-02-18T05:26:21;7.1;;;2.8;;
68375;SDS011;55318;52.068;5.188;2023-02-18T05:27:58;9.21;;;3.1;;
68375;SDS011;55318;52.068;5.188;2023-02-18T05:31:10;5.8;;;3.2;;
68375;SDS011;55318;52.068;5.188;2023-02-18T05:32:46;6.3;;;3.9;;
68375;SDS011;55318;52.068;5.188;2023-02-18T05:34:23;6.5;;;3.4;;
68375;SDS011;55318;52.068;5.188;2023-02-18T05:37:35;7.1;;;4.2;;
68375;SDS011;55318;52.068;5.188;2023-02-18T05:39:11;8.1;;;4.7;;
68375;SDS011;55318;52.068;5.188;2023-02-18T05:40:47;9.0;;;5.3;;
68375;SDS011;55318;52.068;5.188;2023-02-18T05:44:32;8.2;;;5.0;;
68375;SDS011;55318;52.068;5.188;2023-02-18T05:46:08;7.8;;;4.2;;
68375;SDS011;55318;52.068;5.188;2023-02-18T05:47:45;8.2;;;4.1;;
68375;SDS011;55318;52.068;5.188;2023-02-18T05:49:21;9.5;;;5.4;;
68375;SDS011;55318;52.068;5.188;2023-02-18T05:50:57;7.6;;;3.6;;
68375;SDS011;55318;52.068;5.188;2023-02-18T05:54:10;6.9;;;3.7;;
68375;SDS011;55318;52.068;5.188;2023-02-18T05:55:46;5.8;;;2.8;;
68375;SDS011;55318;52.068;5.188;2023-02-18T05:57:22;6.3;;;3.7;;
68375;SDS011;55318;52.068;5.188;2023-02-18T06:00:35;6.5;;;3.7;;
68375;SDS011;55318;52.068;5.188;2023-02-18T06:02:12;7.2;;;4.3;;
68375;SDS011;55318;52.068;5.188;2023-02-18T06:03:48;8.81;;;4.41;;
68375;SDS011;55318;52.068;5.188;2023-02-18T06:07:00;7.7;;;4.1;;
68375;SDS011;55318;52.068;5.188;2023-02-18T06:08:36;6.4;;;3.8;;
68375;SDS011;55318;52.068;5.188;2023-02-18T06:10:12;6.8;;;4.61;;
68375;SDS011;55318;52.068;5.188;2023-02-18T06:11:48;7.2;;;4.3;;
68375;SDS011;55318;52.068;5.188;2023-02-18T06:15:01;8.4;;;4.2;;
68375;SDS011;55318;52.068;5.188;2023-02-18T06:16:37;9.1;;;4.2;;
68375;SDS011;55318;52.068;5.188;2023-02-18T06:18:13;8.4;;;4.8;;
68375;SDS011;55318;52.068;5.188;2023-02-18T06:21:25;14.6;;;5.11;;
68375;SDS011;55318;52.068;5.188;2023-02-18T06:23:01;7.3;;;4.2;;
68375;SDS011;55318;52.068;5.188;2023-02-18T06:24:37;9.71;;;5.6;;
68375;SDS011;55318;52.068;5.188;2023-02-18T06:27:50;9.9;;;4.61;;
68375;SDS011;55318;52.068;5.188;2023-02-18T06:29:28;8.71;;;4.7;;
68375;SDS011;55318;52.068;5.188;2023-02-18T06:31:05;10.8;;;4.1;;
68375;SDS011;55318;52.068;5.188;2023-02-18T06:32:42;7.6;;;4.41;;
68375;SDS011;55318;52.068;5.188;2023-02-18T06:35:55;10.8;;;4.61;;
68375;SDS011;55318;52.068;5.188;2023-02-18T06:37:32;8.2;;;4.0;;
68375;SDS011;55318;52.068;5.188;2023-02-18T06:39:09;10.3;;;4.3;;
68375;SDS011;55318;52.068;5.188;2023-02-18T06:42:22;10.21;;;4.8;;
68375;SDS011;55318;52.068;5.188;2023-02-18T06:43:58;10.4;;;4.8;;
68375;SDS011;55318;52.068;5.188;2023-02-18T06:45:35;13.6;;;5.6;;
68375;SDS011;55318;52.068;5.188;2023-02-18T06:48:49;7.9;;;4.3;;
68375;SDS011;55318;52.068;5.188;2023-02-18T06:50:26;10.7;;;4.8;;
68375;SDS011;55318;52.068;5.188;2023-02-18T06:52:03;10.7;;;4.8;;
68375;SDS011;55318;52.068;5.188;2023-02-18T06:53:40;9.6;;;4.8;;
68375;SDS011;55318;52.068;5.188;2023-02-18T06:56:52;11.9;;;4.5;;
68375;SDS011;55318;52.068;5.188;2023-02-18T06:58:28;13.2;;;4.91;;
68375;SDS011;55318;52.068;5.188;2023-02-18T07:00:06;10.7;;;5.7;;
68375;SDS011;55318;52.068;5.188;2023-02-18T07:03:19;13.9;;;5.0;;
68375;SDS011;55318;52.068;5.188;2023-02-18T07:04:55;11.5;;;5.0;;
68375;SDS011;55318;52.068;5.188;2023-02-18T07:06:31;11.5;;;5.8;;
68375;SDS011;55318;52.068;5.188;2023-02-18T07:09:44;9.1;;;5.3;;
68375;SDS011;55318;52.068;5.188;2023-02-18T07:11:21;11.4;;;5.7;;
68375;SDS011;55318;52.068;5.188;2023-02-18T07:12:56;10.21;;;5.2;;
68375;SDS011;55318;52.068;5.188;2023-02-18T07:14:34;9.6;;;5.0;;
68375;SDS011;55318;52.068;5.188;2023-02-18T07:17:46;12.9;;;5.3;;
68375;SDS011;55318;52.068;5.188;2023-02-18T07:19:22;7.7;;;4.5;;
68375;SDS011;55318;52.068;5.188;2023-02-18T07:20:58;10.0;;;5.0;;
68375;SDS011;55318;52.068;5.188;2023-02-18T07:24:10;12.0;;;5.9;;
68375;SDS011;55318;52.068;5.188;2023-02-18T07:25:47;9.81;;;5.5;;
68375;SDS011;55318;52.068;5.188;2023-02-18T07:27:23;11.1;;;5.7;;
68375;SDS011;55318;52.068;5.188;2023-02-18T07:30:37;11.3;;;5.4;;
68375;SDS011;55318;52.068;5.188;2023-02-18T07:32:14;9.5;;;4.91;;
68375;SDS011;55318;52.068;5.188;2023-02-18T07:33:52;11.1;;;4.5;;
68375;SDS011;55318;52.068;5.188;2023-02-18T07:35:29;10.7;;;4.5;;
68375;SDS011;55318;52.068;5.188;2023-02-18T07:38:44;9.81;;;4.8;;
68375;SDS011;55318;52.068;5.188;2023-02-18T07:40:21;15.9;;;3.9;;
68375;SDS011;55318;52.068;5.188;2023-02-18T07:41:57;11.5;;;3.3;;
68375;SDS011;55318;52.068;5.188;2023-02-18T07:45:09;7.7;;;3.6;;
68375;SDS011;55318;52.068;5.188;2023-02-18T07:46:46;8.1;;;3.0;;
68375;SDS011;55318;52.068;5.188;2023-02-18T07:48:22;13.4;;;3.5;;
68375;SDS011;55318;52.068;5.188;2023-02-18T07:51:34;10.9;;;3.4;;
68375;SDS011;55318;52.068;5.188;2023-02-18T07:53:11;11.8;;;3.6;;
68375;SDS011;55318;52.068;5.188;2023-02-18T07:54:50;11.9;;;2.8;;
68375;SDS011;55318;52.068;5.188;2023-02-18T07:56:26;11.2;;;2.8;;
68375;SDS011;55318;52.068;5.188;2023-02-18T07:59:38;12.9;;;3.2;;
68375;SDS011;55318;52.068;5.188;2023-02-18T08:01:14;9.5;;;2.8;;
68375;SDS011;55318;52.068;5.188;2023-02-18T08:02:51;7.3;;;2.8;;
68375;SDS011;55318;52.068;5.188;2023-02-18T08:06:04;13.3;;;4.2;;
68375;SDS011;55318;52.068;5.188;2023-02-18T08:07:41;12.4;;;2.7;;
68375;SDS011;55318;52.068;5.188;2023-02-18T08:09:17;11.6;;;3.7;;
68375;SDS011;55318;52.068;5.188;2023-02-18T08:12:34;16.3;;;3.0;;
68375;SDS011;55318;52.068;5.188;2023-02-18T08:14:10;12.6;;;3.4;;
68375;SDS011;55318;52.068;5.188;2023-02-18T08:15:46;7.4;;;2.1;;
68375;SDS011;55318;52.068;5.188;2023-02-18T08:17:23;10.4;;;2.4;;
68375;SDS011;55318;52.068;5.188;2023-02-18T08:20:39;11.6;;;2.7;;
68375;SDS011;55318;52.068;5.188;2023-02-18T08:22:15;11.6;;;2.7;;
68375;SDS011;55318;52.068;5.188;2023-02-18T08:23:51;6.6;;;3.5;;
68375;SDS011;55318;52.068;5.188;2023-02-18T08:27:05;12.0;;;2.8;;
68375;SDS011;55318;52.068;5.188;2023-02-18T08:28:40;10.1;;;3.3;;
68375;SDS011;55318;52.068;5.188;2023-02-18T08:30:18;8.81;;;2.31;;
68375;SDS011;55318;52.068;5.188;2023-02-18T08:31:56;7.5;;;2.4;;
68375;SDS011;55318;52.068;5.188;2023-02-18T08:35:09;10.4;;;2.31;;
68375;SDS011;55318;52.068;5.188;2023-02-18T08:36:46;8.31;;;2.1;;
68375;SDS011;55318;52.068;5.188;2023-02-18T08:38:22;9.71;;;2.6;;
68375;SDS011;55318;52.068;5.188;2023-02-18T08:41:36;6.6;;;2.21;;
68375;SDS011;55318;52.068;5.188;2023-02-18T08:43:13;7.1;;;2.6;;
68375;SDS011;55318;52.068;5.188;2023-02-18T08:44:51;10.1;;;2.6;;
68375;SDS011;55318;52.068;5.188;2023-02-18T08:48:03;8.4;;;3.2;;
68375;SDS011;55318;52.068;5.188;2023-02-18T08:49:40;6.4;;;3.0;;
68375;SDS011;55318;52.068;5.188;2023-02-18T08:51:17;6.4;;;2.1;;
68375;SDS011;55318;52.068;5.188;2023-02-18T08:52:59;7.6;;;2.8;;
68375;SDS011;55318;52.068;5.188;2023-02-18T08:56:13;9.81;;;2.0;;
68375;SDS011;55318;52.068;5.188;2023-02-18T08:57:51;8.81;;;2.0;;
68375;SDS011;55318;52.068;5.188;2023-02-18T08:59:27;8.1;;;2.1;;
68375;SDS011;55318;52.068;5.188;2023-02-18T09:02:42;4.2;;;2.21;;
68375;SDS011;55318;52.068;5.188;2023-02-18T09:04:20;5.9;;;2.31;;
68375;SDS011;55318;52.068;5.188;2023-02-18T09:05:58;6.9;;;2.31;;
68375;SDS011;55318;52.068;5.188;2023-02-18T09:07:34;7.7;;;2.0;;
68375;SDS011;55318;52.068;5.188;2023-02-18T09:10:48;6.4;;;1.5;;
68375;SDS011;55318;52.068;5.188;2023-02-18T09:12:24;5.4;;;1.7;;
68375;SDS011;55318;52.068;5.188;2023-02-18T09:14:01;5.8;;;2.21;;
68375;SDS011;55318;52.068;5.188;2023-02-18T09:17:14;7.4;;;2.1;;
68375;SDS011;55318;52.068;5.188;2023-02-18T09:18:50;3.8;;;1.4;;
68375;SDS011;55318;52.068;5.188;2023-02-18T09:20:26;2.7;;;1.7;;
68375;SDS011;55318;52.068;5.188;2023-02-18T09:23:39;3.5;;;2.1;;
68375;SDS011;55318;52.068;5.188;2023-02-18T09:25:15;9.9;;;2.5;;
68375;SDS011;55318;52.068;5.188;2023-02-18T09:26:51;3.7;;;1.9;;
68375;SDS011;55318;52.068;5.188;2023-02-18T09:28:27;4.0;;;1.5;;
68375;SDS011;55318;52.068;5.188;2023-02-18T09:31:42;7.2;;;1.9;;
68375;SDS011;55318;52.068;5.188;2023-02-18T09:33:19;6.5;;;2.4;;
68375;SDS011;55318;52.068;5.188;2023-02-18T09:34:55;4.91;;;1.6;;
68375;SDS011;55318;52.068;5.188;2023-02-18T09:38:08;7.0;;;2.1;;
68375;SDS011;55318;52.068;5.188;2023-02-18T09:39:47;8.4;;;2.0;;
68375;SDS011;55318;52.068;5.188;2023-02-18T09:41:27;5.7;;;2.31;;
68375;SDS011;55318;52.068;5.188;2023-02-18T09:43:21;10.0;;;1.6;;
68375;SDS011;55318;52.068;5.188;2023-02-18T09:45:06;6.3;;;2.4;;
68375;SDS011;55318;52.068;5.188;2023-02-18T09:48:30;9.0;;;2.7;;
68375;SDS011;55318;52.068;5.188;2023-02-18T09:50:12;4.7;;;2.4;;
68375;SDS011;55318;52.068;5.188;2023-02-18T09:51:56;6.8;;;2.6;;
68375;SDS011;55318;52.068;5.188;2023-02-18T09:53:41;5.6;;;1.7;;
68375;SDS011;55318;52.068;5.188;2023-02-18T09:56:59;5.8;;;2.31;;
68375;SDS011;55318;52.068;5.188;2023-02-18T09:58:37;8.5;;;1.8;;
68375;SDS011;55318;52.068;5.188;2023-02-18T10:00:16;5.11;;;1.7;;
68375;SDS011;55318;52.068;5.188;2023-02-18T10:01:58;9.21;;;2.5;;
68375;SDS011;55318;52.068;5.188;2023-02-18T10:05:13;10.4;;;2.1;;
68375;SDS011;55318;52.068;5.188;2023-02-18T10:06:50;7.8;;;1.4;;
68375;SDS011;55318;52.068;5.188;2023-02-18T10:08:29;6.9;;;2.31;;
68375;SDS011;55318;52.068;5.188;2023-02-18T10:11:56;7.1;;;1.9;;
68375;SDS011;55318;52.068;5.188;2023-02-18T10:13:39;6.2;;;2.8;;
68375;SDS011;55318;52.068;5.188;2023-02-18T10:15:17;12.0;;;1.8;;
68375;SDS011;55318;52.068;5.188;2023-02-18T10:16:58;5.0;;;1.9;;
68375;SDS011;55318;52.068;5.188;2023-02-18T10:18:38;13.1;;;2.1;;
68375;SDS011;55318;52.068;5.188;2023-02-18T10:22:00;6.6;;;2.4;;
68375;SDS011;55318;52.068;5.188;2023-02-18T10:23:40;6.3;;;1.7;;
68375;SDS011;55318;52.068;5.188;2023-02-18T10:25:30;6.1;;;1.9;;
68375;SDS011;55318;52.068;5.188;2023-02-18T10:27:08;5.3;;;2.1;;
68375;SDS011;55318;52.068;5.188;2023-02-18T10:30:36;3.3;;;1.5;;
68375;SDS011;55318;52.068;5.188;2023-02-18T10:32:19;12.3;;;3.4;;
68375;SDS011;55318;52.068;5.188;2023-02-18T10:33:59;4.91;;;2.1;;
68375;SDS011;55318;52.068;5.188;2023-02-18T10:35:44;11.2;;;2.1;;
68375;SDS011;55318;52.068;5.188;2023-02-18T10:37:33;5.3;;;1.7;;
68375;SDS011;55318;52.068;5.188;2023-02-18T10:41:24;11.6;;;2.7;;
68375;SDS011;55318;52.068;5.188;2023-02-18T10:43:10;7.6;;;2.21;;
68375;SDS011;55318;52.068;5.188;2023-02-18T10:44:59;9.21;;;2.31;;
68375;SDS011;55318;52.068;5.188;2023-02-18T10:46:47;7.5;;;2.0;;
68375;SDS011;55318;52.068;5.188;2023-02-18T10:48:47;4.3;;;1.6;;
68375;SDS011;55318;52.068;5.188;2023-02-18T10:50:34;4.61;;;1.7;;
68375;SDS011;55318;52.068;5.188;2023-02-18T10:52:15;6.5;;;1.6;;
68375;SDS011;55318;52.068;5.188;2023-02-18T10:55:34;7.2;;;2.21;;
68375;SDS011;55318;52.068;5.188;2023-02-18T10:57:12;5.7;;;1.7;;
68375;SDS011;55318;52.068;5.188;2023-02-18T10:58:57;6.3;;;2.21;;
68375;SDS011;55318;52.068;5.188;2023-02-18T11:00:40;8.5;;;1.9;;
68375;SDS011;55318;52.068;5.188;2023-02-18T11:04:03;3.9;;;2.21;;
68375;SDS011;55318;52.068;5.188;2023-02-18T11:05:43;4.41;;;1.6;;
68375;SDS011;55318;52.068;5.188;2023-02-18T11:07:21;9.5;;;2.1;;
68375;SDS011;55318;52.068;5.188;2023-02-18T11:09:01;7.4;;;2.7;;
68375;SDS011;55318;52.068;5.188;2023-02-18T11:12:18;9.5;;;2.4;;
68375;SDS011;55318;52.068;5.188;2023-02-18T11:13:59;6.0;;;2.1;;
68375;SDS011;55318;52.068;5.188;2023-02-18T11:15:38;5.6;;;1.5;;
68375;SDS011;55318;52.068;5.188;2023-02-18T11:17:31;6.5;;;1.7;;
68375;SDS011;55318;52.068;5.188;2023-02-18T11:21:18;5.9;;;2.0;;
68375;SDS011;55318;52.068;5.188;2023-02-18T11:23:13;5.5;;;2.1;;
68375;SDS011;55318;52.068;5.188;2023-02-18T11:24:54;9.6;;;2.7;;
68375;SDS011;55318;52.068;5.188;2023-02-18T11:26:31;6.5;;;2.1;;
68375;SDS011;55318;52.068;5.188;2023-02-18T11:28:22;6.5;;;2.1;;
68375;SDS011;55318;52.068;5.188;2023-02-18T11:30:16;5.8;;;2.1;;
68375;SDS011;55318;52.068;5.188;2023-02-18T11:31:57;4.41;;;1.8;;
68375;SDS011;55318;52.068;5.188;2023-02-18T11:35:17;5.11;;;1.8;;
68375;SDS011;55318;52.068;5.188;2023-02-18T11:36:56;6.6;;;1.6;;
68375;SDS011;55318;52.068;5.188;2023-02-18T11:38:45;4.91;;;1.5;;
68375;SDS011;55318;52.068;5.188;2023-02-18T11:40:27;13.1;;;2.1;;
68375;SDS011;55318;52.068;5.188;2023-02-18T11:43:50;8.6;;;2.5;;
68375;SDS011;55318;52.068;5.188;2023-02-18T11:45:29;7.7;;;3.2;;
68375;SDS011;55318;52.068;5.188;2023-02-18T11:47:18;10.6;;;2.1;;
68375;SDS011;55318;52.068;5.188;2023-02-18T11:49:09;7.1;;;1.6;;
68375;SDS011;55318;52.068;5.188;2023-02-18T11:50:59;6.4;;;2.21;;
68375;SDS011;55318;52.068;5.188;2023-02-18T11:54:21;9.5;;;2.21;;
68375;SDS011;55318;52.068;5.188;2023-02-18T11:56:00;11.4;;;3.1;;
68375;SDS011;55318;52.068;5.188;2023-02-18T11:57:41;5.0;;;1.9;;
68375;SDS011;55318;52.068;5.188;2023-02-18T11:59:22;4.8;;;2.7;;
68375;SDS011;55318;52.068;5.188;2023-02-18T12:02:39;9.71;;;2.8;;
68375;SDS011;55318;52.068;5.188;2023-02-18T12:04:17;6.6;;;1.8;;
68375;SDS011;55318;52.068;5.188;2023-02-18T12:05:57;5.6;;;2.1;;
68375;SDS011;55318;52.068;5.188;2023-02-18T12:07:40;9.1;;;2.31;;
68375;SDS011;55318;52.068;5.188;2023-02-18T12:11:05;7.5;;;2.4;;
68375;SDS011;55318;52.068;5.188;2023-02-18T12:12:50;9.71;;;2.0;;
68375;SDS011;55318;52.068;5.188;2023-02-18T12:14:34;5.11;;;2.31;;
68375;SDS011;55318;52.068;5.188;2023-02-18T12:16:14;5.9;;;2.4;;
68375;SDS011;55318;52.068;5.188;2023-02-18T12:18:08;7.2;;;2.1;;
68375;SDS011;55318;52.068;5.188;2023-02-18T12:20:17;10.0;;;2.31;;
68375;SDS011;55318;52.068;5.188;2023-02-18T12:22:09;5.3;;;1.5;;
68375;SDS011;55318;52.068;5.188;2023-02-18T12:25:46;5.5;;;1.6;;
68375;SDS011;55318;52.068;5.188;2023-02-18T12:27:34;4.1;;;1.3;;
68375;SDS011;55318;52.068;5.188;2023-02-18T12:29:29;7.0;;;2.31;;
68375;SDS011;55318;52.068;5.188;2023-02-18T12:31:23;2.5;;;1.2;;
68375;SDS011;55318;52.068;5.188;2023-02-18T12:33:18;6.8;;;2.5;;
68375;SDS011;55318;52.068;5.188;2023-02-18T12:35:10;3.6;;;1.6;;
68375;SDS011;55318;52.068;5.188;2023-02-18T12:37:17;4.1;;;1.6;;
68375;SDS011;55318;52.068;5.188;2023-02-18T12:39:18;5.5;;;1.7;;
68375;SDS011;55318;52.068;5.188;2023-02-18T12:41:13;3.3;;;1.5;;
68375;SDS011;55318;52.068;5.188;2023-02-18T12:43:06;6.6;;;1.4;;
68375;SDS011;55318;52.068;5.188;2023-02-18T12:46:59;5.7;;;1.7;;
68375;SDS011;55318;52.068;5.188;2023-02-18T12:48:58;7.5;;;1.6;;
68375;SDS011;55318;52.068;5.188;2023-02-18T12:51:25;7.5;;;1.2;;
68375;SDS011;55318;52.068;5.188;2023-02-18T12:55:20;9.4;;;1.5;;
68375;SDS011;55318;52.068;5.188;2023-02-18T12:57:22;2.8;;;1.3;;
68375;SDS011;55318;52.068;5.188;2023-02-18T12:59:14;3.5;;;2.0;;
68375;SDS011;55318;52.068;5.188;2023-02-18T13:01:20;6.4;;;1.8;;